sensor_id;sensor_type;location;lat;lon;timestamp;temperature;humidity
843;DHT22;407;48.884;9.126;2023-05-07T00:02:22;15.20;99.90
843;DHT22;407;48.884;9.126;2023-05-07T00:04:48;15.20;1.00
843;DHT22;407;48.884;9.126;2023-05-07T00:07:14;15.40;99.90
843;DHT22;407;48.884;9.126;2023-05-07T00:09:40;15.40;27.30
843;DHT22;407;48.884;9.126;2023-05-07T00:12:06;15.50;1.00
843;DHT22;407;48.884;9.126;2023-05-07T00:14:33;15.40;99.90
843;DHT22;407;48.884;9.126;2023-05-07T00:16:59;15.30;99.90
843;DHT22;407;48.884;9.126;2023-05-07T00:19:24;15.30;1.00
843;DHT22;407;48.884;9.126;2023-05-07T00:21:50;15.20;1.00
843;DHT22;407;48.884;9.126;2023-05-07T00:24:15;15.10;99.90
843;DHT22;407;48.884;9.126;2023-05-07T00:26:41;15.10;1.00
843;DHT22;407;48.884;9.126;2023-05-07T00:29:07;15.10;1.00
843;DHT22;407;48.884;9.126;2023-05-07T00:31:32;15.10;99.90
843;DHT22;407;48.884;9.126;2023-05-07T00:33:58;15.20;99.90
843;DHT22;407;48.884;9.126;2023-05-07T00:36:23;15.20;1.00
843;DHT22;407;48.884;9.126;2023-05-07T00:38:49;15.20;1.00
843;DHT22;407;48.884;9.126;2023-05-07T00:41:15;15.20;99.90
843;DHT22;407;48.884;9.126;2023-05-07T00:43:41;15.10;99.90
843;DHT22;407;48.884;9.126;2023-05-07T00:46:06;15.10;99.90
843;DHT22;407;48.884;9.126;2023-05-07T00:48:32;15.00;99.90
843;DHT22;407;48.884;9.126;2023-05-07T00:50:57;15.00;99.90
843;DHT22;407;48.884;9.126;2023-05-07T00:53:23;15.00;1.00
843;DHT22;407;48.884;9.126;2023-05-07T00:55:49;15.10;1.00
843;DHT22;407;48.884;9.126;2023-05-07T00:58:16;15.10;1.00
843;DHT22;407;48.884;9.126;2023-05-07T01:00:41;15.10;1.00
843;DHT22;407;48.884;9.126;2023-05-07T01:03:07;15.00;99.90
843;DHT22;407;48.884;9.126;2023-05-07T01:05:33;14.90;1.00
843;DHT22;407;48.884;9.126;2023-05-07T01:07:59;14.90;1.00
843;DHT22;407;48.884;9.126;2023-05-07T01:10:25;14.90;99.90
843;DHT22;407;48.884;9.126;2023-05-07T01:12:51;14.80;99.90
843;DHT22;407;48.884;9.126;2023-05-07T01:15:18;14.80;99.90
843;DHT22;407;48.884;9.126;2023-05-07T01:17:44;14.70;1.00
843;DHT22;407;48.884;9.126;2023-05-07T01:20:10;14.70;63.50
843;DHT22;407;48.884;9.126;2023-05-07T01:22:39;14.70;1.00
843;DHT22;407;48.884;9.126;2023-05-07T01:25:06;14.70;99.90
843;DHT22;407;48.884;9.126;2023-05-07T01:27:32;14.80;99.90
843;DHT22;407;48.884;9.126;2023-05-07T01:30:03;14.70;99.90
843;DHT22;407;48.884;9.126;2023-05-07T01:32:43;14.60;1.00
843;DHT22;407;48.884;9.126;2023-05-07T01:35:12;14.50;31.30
843;DHT22;407;48.884;9.126;2023-05-07T01:37:40;14.60;99.90
843;DHT22;407;48.884;9.126;2023-05-07T01:40:06;14.60;1.00
843;DHT22;407;48.884;9.126;2023-05-07T01:42:32;14.60;1.00
843;DHT22;407;48.884;9.126;2023-05-07T01:44:59;14.70;49.00
843;DHT22;407;48.884;9.126;2023-05-07T01:47:25;14.70;99.90
843;DHT22;407;48.884;9.126;2023-05-07T01:49:53;14.80;99.90
843;DHT22;407;48.884;9.126;2023-05-07T01:52:19;14.80;99.90
843;DHT22;407;48.884;9.126;2023-05-07T01:54:46;14.80;99.90
843;DHT22;407;48.884;9.126;2023-05-07T01:57:11;14.80;99.90
843;DHT22;407;48.884;9.126;2023-05-07T01:59:37;14.80;1.00
843;DHT22;407;48.884;9.126;2023-05-07T02:02:02;14.80;1.00
843;DHT22;407;48.884;9.126;2023-05-07T02:04:28;14.80;1.00
843;DHT22;407;48.884;9.126;2023-05-07T02:06:53;14.80;1.00
843;DHT22;407;48.884;9.126;2023-05-07T02:09:19;14.70;99.90
843;DHT22;407;48.884;9.126;2023-05-07T02:11:45;14.60;99.90
843;DHT22;407;48.884;9.126;2023-05-07T02:14:10;14.50;1.00
843;DHT22;407;48.884;9.126;2023-05-07T02:16:36;14.40;1.00
843;DHT22;407;48.884;9.126;2023-05-07T02:19:02;14.40;64.50
843;DHT22;407;48.884;9.126;2023-05-07T02:21:27;14.30;99.90
843;DHT22;407;48.884;9.126;2023-05-07T02:23:53;14.30;99.90
843;DHT22;407;48.884;9.126;2023-05-07T02:26:19;14.30;99.90
843;DHT22;407;48.884;9.126;2023-05-07T02:28:44;14.40;79.70
843;DHT22;407;48.884;9.126;2023-05-07T02:31:10;14.40;1.00
843;DHT22;407;48.884;9.126;2023-05-07T02:33:36;14.30;1.00
843;DHT22;407;48.884;9.126;2023-05-07T02:36:11;14.30;59.00
843;DHT22;407;48.884;9.126;2023-05-07T02:38:37;14.20;99.90
843;DHT22;407;48.884;9.126;2023-05-07T02:41:03;14.20;99.90
843;DHT22;407;48.884;9.126;2023-05-07T02:43:29;14.20;99.90
843;DHT22;407;48.884;9.126;2023-05-07T02:46:08;14.10;99.90
843;DHT22;407;48.884;9.126;2023-05-07T02:48:34;14.10;99.90
843;DHT22;407;48.884;9.126;2023-05-07T02:51:01;14.10;99.90
843;DHT22;407;48.884;9.126;2023-05-07T02:53:26;14.10;99.90
843;DHT22;407;48.884;9.126;2023-05-07T02:55:56;14.10;99.90
843;DHT22;407;48.884;9.126;2023-05-07T02:58:22;14.00;99.90
843;DHT22;407;48.884;9.126;2023-05-07T03:00:48;13.80;99.90
843;DHT22;407;48.884;9.126;2023-05-07T03:03:14;13.70;99.90
843;DHT22;407;48.884;9.126;2023-05-07T03:05:39;13.70;99.90
843;DHT22;407;48.884;9.126;2023-05-07T03:08:05;13.70;99.90
843;DHT22;407;48.884;9.126;2023-05-07T03:10:31;13.60;99.90
843;DHT22;407;48.884;9.126;2023-05-07T03:12:56;13.70;99.90
843;DHT22;407;48.884;9.126;2023-05-07T03:15:22;13.60;99.90
843;DHT22;407;48.884;9.126;2023-05-07T03:17:48;13.60;99.90
843;DHT22;407;48.884;9.126;2023-05-07T03:20:14;13.50;99.90
843;DHT22;407;48.884;9.126;2023-05-07T03:22:40;13.60;99.90
843;DHT22;407;48.884;9.126;2023-05-07T03:25:06;13.60;99.90
843;DHT22;407;48.884;9.126;2023-05-07T03:27:34;13.50;99.90
843;DHT22;407;48.884;9.126;2023-05-07T03:30:00;13.50;99.90
843;DHT22;407;48.884;9.126;2023-05-07T03:32:26;13.40;99.90
843;DHT22;407;48.884;9.126;2023-05-07T03:34:52;13.30;99.90
843;DHT22;407;48.884;9.126;2023-05-07T03:37:18;13.30;99.90
843;DHT22;407;48.884;9.126;2023-05-07T03:39:43;13.10;99.90
843;DHT22;407;48.884;9.126;2023-05-07T03:42:09;13.20;99.90
843;DHT22;407;48.884;9.126;2023-05-07T03:44:35;13.10;99.90
843;DHT22;407;48.884;9.126;2023-05-07T03:47:02;13.20;99.90
843;DHT22;407;48.884;9.126;2023-05-07T03:49:27;13.20;99.90
843;DHT22;407;48.884;9.126;2023-05-07T03:51:53;13.20;99.90
843;DHT22;407;48.884;9.126;2023-05-07T03:54:19;13.10;99.90
843;DHT22;407;48.884;9.126;2023-05-07T03:56:44;13.30;99.90
843;DHT22;407;48.884;9.126;2023-05-07T03:59:10;13.30;99.90
843;DHT22;407;48.884;9.126;2023-05-07T04:01:35;13.30;99.90
843;DHT22;407;48.884;9.126;2023-05-07T04:04:01;13.30;99.90
843;DHT22;407;48.884;9.126;2023-05-07T04:06:27;13.30;99.90
843;DHT22;407;48.884;9.126;2023-05-07T04:08:52;13.40;99.90
843;DHT22;407;48.884;9.126;2023-05-07T04:11:18;13.50;99.90
843;DHT22;407;48.884;9.126;2023-05-07T04:13:44;13.40;99.90
843;DHT22;407;48.884;9.126;2023-05-07T04:16:09;13.50;99.90
843;DHT22;407;48.884;9.126;2023-05-07T04:18:35;13.60;99.90
843;DHT22;407;48.884;9.126;2023-05-07T04:21:01;13.70;99.90
843;DHT22;407;48.884;9.126;2023-05-07T04:23:27;13.80;1.00
843;DHT22;407;48.884;9.126;2023-05-07T04:25:52;13.90;1.00
843;DHT22;407;48.884;9.126;2023-05-07T04:28:19;13.90;1.00
843;DHT22;407;48.884;9.126;2023-05-07T04:30:45;14.00;1.00
843;DHT22;407;48.884;9.126;2023-05-07T04:33:11;14.00;1.00
843;DHT22;407;48.884;9.126;2023-05-07T04:35:37;13.90;1.00
843;DHT22;407;48.884;9.126;2023-05-07T04:38:03;14.00;1.00
843;DHT22;407;48.884;9.126;2023-05-07T04:40:29;14.00;1.00
843;DHT22;407;48.884;9.126;2023-05-07T04:42:54;14.20;99.90
843;DHT22;407;48.884;9.126;2023-05-07T04:45:20;14.20;99.90
843;DHT22;407;48.884;9.126;2023-05-07T04:47:45;14.20;33.90
843;DHT22;407;48.884;9.126;2023-05-07T04:50:11;14.30;99.90
843;DHT22;407;48.884;9.126;2023-05-07T04:52:37;14.70;25.30
843;DHT22;407;48.884;9.126;2023-05-07T04:55:02;15.00;1.00
843;DHT22;407;48.884;9.126;2023-05-07T04:57:28;15.40;1.00
843;DHT22;407;48.884;9.126;2023-05-07T04:59:54;16.00;99.90
843;DHT22;407;48.884;9.126;2023-05-07T05:02:19;16.40;1.00
843;DHT22;407;48.884;9.126;2023-05-07T05:04:46;16.50;1.00
843;DHT22;407;48.884;9.126;2023-05-07T05:07:11;16.60;1.00
843;DHT22;407;48.884;9.126;2023-05-07T05:09:37;16.60;1.00
843;DHT22;407;48.884;9.126;2023-05-07T05:12:03;16.60;1.00
843;DHT22;407;48.884;9.126;2023-05-07T05:14:29;16.50;99.90
843;DHT22;407;48.884;9.126;2023-05-07T05:16:54;16.40;99.90
843;DHT22;407;48.884;9.126;2023-05-07T05:19:20;16.20;99.90
843;DHT22;407;48.884;9.126;2023-05-07T05:21:46;16.20;1.00
843;DHT22;407;48.884;9.126;2023-05-07T05:24:11;16.20;1.00
843;DHT22;407;48.884;9.126;2023-05-07T05:26:37;16.30;1.00
843;DHT22;407;48.884;9.126;2023-05-07T05:29:02;16.20;1.00
843;DHT22;407;48.884;9.126;2023-05-07T05:31:28;16.20;1.00
843;DHT22;407;48.884;9.126;2023-05-07T05:33:54;17.00;1.00
843;DHT22;407;48.884;9.126;2023-05-07T05:36:19;18.70;99.90
843;DHT22;407;48.884;9.126;2023-05-07T05:38:45;20.40;1.00
843;DHT22;407;48.884;9.126;2023-05-07T05:41:11;22.00;1.00
843;DHT22;407;48.884;9.126;2023-05-07T05:43:36;23.30;99.90
843;DHT22;407;48.884;9.126;2023-05-07T05:46:02;23.80;1.00
843;DHT22;407;48.884;9.126;2023-05-07T05:48:29;24.60;1.00
843;DHT22;407;48.884;9.126;2023-05-07T05:50:55;24.50;99.90
843;DHT22;407;48.884;9.126;2023-05-07T05:53:21;25.20;99.90
843;DHT22;407;48.884;9.126;2023-05-07T05:55:47;26.20;99.90
843;DHT22;407;48.884;9.126;2023-05-07T05:58:12;26.00;99.90
843;DHT22;407;48.884;9.126;2023-05-07T06:00:38;26.40;99.90
843;DHT22;407;48.884;9.126;2023-05-07T06:03:04;26.40;99.90
843;DHT22;407;48.884;9.126;2023-05-07T06:05:29;26.30;99.90
843;DHT22;407;48.884;9.126;2023-05-07T06:07:55;25.90;99.90
843;DHT22;407;48.884;9.126;2023-05-07T06:10:21;26.00;99.90
843;DHT22;407;48.884;9.126;2023-05-07T06:12:46;25.70;99.90
843;DHT22;407;48.884;9.126;2023-05-07T06:15:12;25.20;99.90
843;DHT22;407;48.884;9.126;2023-05-07T06:17:38;25.30;99.90
843;DHT22;407;48.884;9.126;2023-05-07T06:20:03;26.20;99.90
843;DHT22;407;48.884;9.126;2023-05-07T06:22:29;26.40;99.90
843;DHT22;407;48.884;9.126;2023-05-07T06:24:56;25.70;99.90
843;DHT22;407;48.884;9.126;2023-05-07T06:27:22;25.10;99.90
843;DHT22;407;48.884;9.126;2023-05-07T06:29:48;24.90;99.90
843;DHT22;407;48.884;9.126;2023-05-07T06:32:13;25.60;99.90
843;DHT22;407;48.884;9.126;2023-05-07T06:34:40;25.20;99.90
843;DHT22;407;48.884;9.126;2023-05-07T06:37:06;24.10;99.90
843;DHT22;407;48.884;9.126;2023-05-07T06:39:32;24.50;99.90
843;DHT22;407;48.884;9.126;2023-05-07T06:41:59;25.40;99.90
843;DHT22;407;48.884;9.126;2023-05-07T06:44:25;26.30;99.90
843;DHT22;407;48.884;9.126;2023-05-07T06:46:50;27.30;99.90
843;DHT22;407;48.884;9.126;2023-05-07T06:49:16;27.80;99.90
843;DHT22;407;48.884;9.126;2023-05-07T06:51:41;28.40;99.90
843;DHT22;407;48.884;9.126;2023-05-07T06:54:07;28.70;99.90
843;DHT22;407;48.884;9.126;2023-05-07T06:56:33;28.60;99.90
843;DHT22;407;48.884;9.126;2023-05-07T06:59:00;28.70;99.90
843;DHT22;407;48.884;9.126;2023-05-07T07:01:26;29.20;99.90
843;DHT22;407;48.884;9.126;2023-05-07T07:03:52;29.00;99.90
843;DHT22;407;48.884;9.126;2023-05-07T07:06:17;28.50;99.90
843;DHT22;407;48.884;9.126;2023-05-07T07:08:43;28.70;99.90
843;DHT22;407;48.884;9.126;2023-05-07T07:11:09;28.50;99.90
843;DHT22;407;48.884;9.126;2023-05-07T07:13:35;28.30;99.90
843;DHT22;407;48.884;9.126;2023-05-07T07:16:01;28.20;99.90
843;DHT22;407;48.884;9.126;2023-05-07T07:18:27;28.80;99.90
843;DHT22;407;48.884;9.126;2023-05-07T07:20:52;29.60;99.90
843;DHT22;407;48.884;9.126;2023-05-07T07:23:18;29.80;99.90
843;DHT22;407;48.884;9.126;2023-05-07T07:25:44;29.60;99.90
843;DHT22;407;48.884;9.126;2023-05-07T07:28:10;28.40;99.90
843;DHT22;407;48.884;9.126;2023-05-07T07:30:36;27.40;99.90
843;DHT22;407;48.884;9.126;2023-05-07T07:33:02;26.10;99.90
843;DHT22;407;48.884;9.126;2023-05-07T07:35:35;25.30;99.90
843;DHT22;407;48.884;9.126;2023-05-07T07:38:00;25.10;99.90
843;DHT22;407;48.884;9.126;2023-05-07T07:40:27;25.00;99.90
843;DHT22;407;48.884;9.126;2023-05-07T07:42:53;25.00;99.90
843;DHT22;407;48.884;9.126;2023-05-07T07:45:19;25.40;99.90
843;DHT22;407;48.884;9.126;2023-05-07T07:47:44;26.10;99.90
843;DHT22;407;48.884;9.126;2023-05-07T07:50:10;26.50;99.90
843;DHT22;407;48.884;9.126;2023-05-07T07:52:36;25.70;99.90
843;DHT22;407;48.884;9.126;2023-05-07T07:55:02;25.30;99.90
843;DHT22;407;48.884;9.126;2023-05-07T07:57:28;24.60;99.90
843;DHT22;407;48.884;9.126;2023-05-07T07:59:54;23.90;99.90
843;DHT22;407;48.884;9.126;2023-05-07T08:02:19;23.40;99.90
843;DHT22;407;48.884;9.126;2023-05-07T08:04:45;23.10;99.90
843;DHT22;407;48.884;9.126;2023-05-07T08:07:11;23.00;99.90
843;DHT22;407;48.884;9.126;2023-05-07T08:09:38;22.90;99.90
843;DHT22;407;48.884;9.126;2023-05-07T08:12:05;23.10;99.90
843;DHT22;407;48.884;9.126;2023-05-07T08:14:30;22.70;99.90
843;DHT22;407;48.884;9.126;2023-05-07T08:16:56;22.70;99.90
843;DHT22;407;48.884;9.126;2023-05-07T08:19:22;22.80;99.90
843;DHT22;407;48.884;9.126;2023-05-07T08:21:48;22.80;99.90
843;DHT22;407;48.884;9.126;2023-05-07T08:24:17;23.00;99.90
843;DHT22;407;48.884;9.126;2023-05-07T08:26:43;23.20;99.90
843;DHT22;407;48.884;9.126;2023-05-07T08:29:09;23.40;99.90
843;DHT22;407;48.884;9.126;2023-05-07T08:31:35;23.60;99.90
843;DHT22;407;48.884;9.126;2023-05-07T08:34:01;23.80;99.90
843;DHT22;407;48.884;9.126;2023-05-07T08:36:26;24.30;99.90
843;DHT22;407;48.884;9.126;2023-05-07T08:38:54;24.80;99.90
843;DHT22;407;48.884;9.126;2023-05-07T08:41:20;25.30;99.90
843;DHT22;407;48.884;9.126;2023-05-07T08:43:48;26.10;99.90
843;DHT22;407;48.884;9.126;2023-05-07T08:46:21;27.60;99.90
843;DHT22;407;48.884;9.126;2023-05-07T08:48:51;28.90;99.90
843;DHT22;407;48.884;9.126;2023-05-07T08:51:18;29.80;99.90
843;DHT22;407;48.884;9.126;2023-05-07T08:53:45;31.40;99.90
843;DHT22;407;48.884;9.126;2023-05-07T08:56:11;32.00;99.90
843;DHT22;407;48.884;9.126;2023-05-07T08:58:37;32.20;99.90
843;DHT22;407;48.884;9.126;2023-05-07T09:01:08;32.60;99.90
843;DHT22;407;48.884;9.126;2023-05-07T09:03:34;32.30;99.90
843;DHT22;407;48.884;9.126;2023-05-07T09:06:00;32.20;99.90
843;DHT22;407;48.884;9.126;2023-05-07T09:08:29;32.40;99.90
843;DHT22;407;48.884;9.126;2023-05-07T09:10:55;32.60;99.90
843;DHT22;407;48.884;9.126;2023-05-07T09:13:20;32.40;99.90
843;DHT22;407;48.884;9.126;2023-05-07T09:15:46;31.80;99.90
843;DHT22;407;48.884;9.126;2023-05-07T09:18:12;31.70;99.90
843;DHT22;407;48.884;9.126;2023-05-07T09:20:39;32.20;99.90
843;DHT22;407;48.884;9.126;2023-05-07T09:23:06;32.90;99.90
843;DHT22;407;48.884;9.126;2023-05-07T09:25:34;34.10;99.90
843;DHT22;407;48.884;9.126;2023-05-07T09:28:01;34.50;99.90
843;DHT22;407;48.884;9.126;2023-05-07T09:30:30;34.00;99.90
843;DHT22;407;48.884;9.126;2023-05-07T09:32:57;34.10;99.90
843;DHT22;407;48.884;9.126;2023-05-07T09:35:23;34.80;99.90
843;DHT22;407;48.884;9.126;2023-05-07T09:37:58;34.30;99.90
843;DHT22;407;48.884;9.126;2023-05-07T09:40:29;34.50;99.90
843;DHT22;407;48.884;9.126;2023-05-07T09:42:55;34.90;99.90
843;DHT22;407;48.884;9.126;2023-05-07T09:45:25;34.30;99.90
843;DHT22;407;48.884;9.126;2023-05-07T09:47:55;34.30;99.90
843;DHT22;407;48.884;9.126;2023-05-07T09:50:26;34.10;99.90
843;DHT22;407;48.884;9.126;2023-05-07T09:52:54;33.80;99.90
843;DHT22;407;48.884;9.126;2023-05-07T09:55:20;34.30;99.90
843;DHT22;407;48.884;9.126;2023-05-07T09:57:51;34.70;99.90
843;DHT22;407;48.884;9.126;2023-05-07T10:00:19;34.80;99.90
843;DHT22;407;48.884;9.126;2023-05-07T10:02:49;34.60;99.90
843;DHT22;407;48.884;9.126;2023-05-07T10:05:18;33.80;99.90
843;DHT22;407;48.884;9.126;2023-05-07T10:07:45;32.70;99.90
843;DHT22;407;48.884;9.126;2023-05-07T10:10:11;33.00;99.90
843;DHT22;407;48.884;9.126;2023-05-07T10:12:37;33.20;99.90
843;DHT22;407;48.884;9.126;2023-05-07T10:15:11;32.90;99.90
843;DHT22;407;48.884;9.126;2023-05-07T10:17:40;33.00;99.90
843;DHT22;407;48.884;9.126;2023-05-07T10:20:07;32.80;99.90
843;DHT22;407;48.884;9.126;2023-05-07T10:22:41;32.80;99.90
843;DHT22;407;48.884;9.126;2023-05-07T10:25:18;32.20;99.90
843;DHT22;407;48.884;9.126;2023-05-07T10:27:47;32.30;99.90
843;DHT22;407;48.884;9.126;2023-05-07T10:30:24;32.60;99.90
843;DHT22;407;48.884;9.126;2023-05-07T10:32:55;31.90;99.90
843;DHT22;407;48.884;9.126;2023-05-07T10:35:25;31.30;99.90
843;DHT22;407;48.884;9.126;2023-05-07T10:37:52;30.60;99.90
843;DHT22;407;48.884;9.126;2023-05-07T10:40:19;29.90;99.90
843;DHT22;407;48.884;9.126;2023-05-07T10:42:58;29.40;99.90
843;DHT22;407;48.884;9.126;2023-05-07T10:45:25;28.80;99.90
843;DHT22;407;48.884;9.126;2023-05-07T10:50:39;28.50;99.90
843;DHT22;407;48.884;9.126;2023-05-07T10:55:47;28.70;99.90
843;DHT22;407;48.884;9.126;2023-05-07T11:00:50;27.80;99.90
843;DHT22;407;48.884;9.126;2023-05-07T11:03:16;27.60;99.90
843;DHT22;407;48.884;9.126;2023-05-07T11:05:42;27.30;99.90
843;DHT22;407;48.884;9.126;2023-05-07T11:08:09;27.30;99.90
843;DHT22;407;48.884;9.126;2023-05-07T11:10:56;27.30;99.90
843;DHT22;407;48.884;9.126;2023-05-07T11:16:27;27.00;99.90
843;DHT22;407;48.884;9.126;2023-05-07T11:18:54;26.80;99.90
843;DHT22;407;48.884;9.126;2023-05-07T11:21:40;26.70;99.90
843;DHT22;407;48.884;9.126;2023-05-07T11:24:07;27.40;99.90
843;DHT22;407;48.884;9.126;2023-05-07T11:26:49;26.90;99.90
843;DHT22;407;48.884;9.126;2023-05-07T11:29:21;27.20;99.90
843;DHT22;407;48.884;9.126;2023-05-07T11:31:54;26.90;99.90
843;DHT22;407;48.884;9.126;2023-05-07T11:34:24;27.20;99.90
843;DHT22;407;48.884;9.126;2023-05-07T11:36:50;27.10;99.90
843;DHT22;407;48.884;9.126;2023-05-07T11:39:32;27.00;99.90
843;DHT22;407;48.884;9.126;2023-05-07T11:42:02;27.10;99.90
843;DHT22;407;48.884;9.126;2023-05-07T11:44:48;26.80;99.90
843;DHT22;407;48.884;9.126;2023-05-07T11:47:18;26.80;99.90
843;DHT22;407;48.884;9.126;2023-05-07T11:49:47;26.50;99.90
843;DHT22;407;48.884;9.126;2023-05-07T11:52:14;26.20;99.90
843;DHT22;407;48.884;9.126;2023-05-07T11:54:39;26.10;99.90
843;DHT22;407;48.884;9.126;2023-05-07T11:57:05;26.10;99.90
843;DHT22;407;48.884;9.126;2023-05-07T11:59:41;26.10;99.90
843;DHT22;407;48.884;9.126;2023-05-07T12:02:09;26.10;99.90
843;DHT22;407;48.884;9.126;2023-05-07T12:04:35;25.90;99.90
843;DHT22;407;48.884;9.126;2023-05-07T12:07:01;25.70;99.90
843;DHT22;407;48.884;9.126;2023-05-07T12:09:27;25.80;99.90
843;DHT22;407;48.884;9.126;2023-05-07T12:11:52;25.90;99.90
843;DHT22;407;48.884;9.126;2023-05-07T12:14:18;26.10;99.90
843;DHT22;407;48.884;9.126;2023-05-07T12:16:44;26.10;99.90
843;DHT22;407;48.884;9.126;2023-05-07T12:19:10;26.10;99.90
843;DHT22;407;48.884;9.126;2023-05-07T12:21:40;26.20;99.90
843;DHT22;407;48.884;9.126;2023-05-07T12:24:06;25.90;99.90
843;DHT22;407;48.884;9.126;2023-05-07T12:26:37;25.70;99.90
843;DHT22;407;48.884;9.126;2023-05-07T12:29:03;25.50;99.90
843;DHT22;407;48.884;9.126;2023-05-07T12:31:29;25.50;99.90
843;DHT22;407;48.884;9.126;2023-05-07T12:33:55;25.70;99.90
843;DHT22;407;48.884;9.126;2023-05-07T12:36:20;25.60;99.90
843;DHT22;407;48.884;9.126;2023-05-07T12:38:49;25.70;99.90
843;DHT22;407;48.884;9.126;2023-05-07T12:41:15;25.70;99.90
843;DHT22;407;48.884;9.126;2023-05-07T12:43:44;25.60;99.90
843;DHT22;407;48.884;9.126;2023-05-07T12:46:11;25.40;99.90
843;DHT22;407;48.884;9.126;2023-05-07T12:48:43;25.20;99.90
843;DHT22;407;48.884;9.126;2023-05-07T12:51:11;25.00;99.90
843;DHT22;407;48.884;9.126;2023-05-07T12:53:42;24.40;99.90
843;DHT22;407;48.884;9.126;2023-05-07T12:56:08;23.90;99.90
843;DHT22;407;48.884;9.126;2023-05-07T12:58:35;23.40;99.90
843;DHT22;407;48.884;9.126;2023-05-07T13:01:04;22.80;99.90
843;DHT22;407;48.884;9.126;2023-05-07T13:03:32;22.30;99.90
843;DHT22;407;48.884;9.126;2023-05-07T13:06:09;21.70;99.90
843;DHT22;407;48.884;9.126;2023-05-07T13:08:40;21.50;99.90
843;DHT22;407;48.884;9.126;2023-05-07T13:11:09;21.40;99.90
843;DHT22;407;48.884;9.126;2023-05-07T13:13:37;21.30;99.90
843;DHT22;407;48.884;9.126;2023-05-07T13:16:04;21.10;99.90
843;DHT22;407;48.884;9.126;2023-05-07T13:18:32;20.90;99.90
843;DHT22;407;48.884;9.126;2023-05-07T13:20:58;20.70;99.90
843;DHT22;407;48.884;9.126;2023-05-07T13:23:23;20.70;99.90
843;DHT22;407;48.884;9.126;2023-05-07T13:25:49;20.80;99.90
843;DHT22;407;48.884;9.126;2023-05-07T13:28:16;20.90;99.90
843;DHT22;407;48.884;9.126;2023-05-07T13:30:43;20.90;99.90
843;DHT22;407;48.884;9.126;2023-05-07T13:33:09;21.10;99.90
843;DHT22;407;48.884;9.126;2023-05-07T13:35:35;21.20;99.90
843;DHT22;407;48.884;9.126;2023-05-07T13:38:01;21.10;99.90
843;DHT22;407;48.884;9.126;2023-05-07T13:40:26;20.80;99.90
843;DHT22;407;48.884;9.126;2023-05-07T13:42:53;20.50;99.90
843;DHT22;407;48.884;9.126;2023-05-07T13:45:19;20.10;99.90
843;DHT22;407;48.884;9.126;2023-05-07T13:47:45;19.80;99.90
843;DHT22;407;48.884;9.126;2023-05-07T13:50:12;19.30;99.90
843;DHT22;407;48.884;9.126;2023-05-07T13:52:42;19.30;99.90
843;DHT22;407;48.884;9.126;2023-05-07T13:55:09;19.40;99.90
843;DHT22;407;48.884;9.126;2023-05-07T13:57:36;19.40;1.00
843;DHT22;407;48.884;9.126;2023-05-07T14:00:03;19.40;1.00
843;DHT22;407;48.884;9.126;2023-05-07T14:02:30;19.40;1.00
843;DHT22;407;48.884;9.126;2023-05-07T14:04:56;19.40;1.00
843;DHT22;407;48.884;9.126;2023-05-07T14:07:21;19.40;1.00
843;DHT22;407;48.884;9.126;2023-05-07T14:09:47;19.10;1.00
843;DHT22;407;48.884;9.126;2023-05-07T14:12:13;19.10;69.00
843;DHT22;407;48.884;9.126;2023-05-07T14:14:38;18.60;99.90
843;DHT22;407;48.884;9.126;2023-05-07T14:17:05;18.50;99.90
843;DHT22;407;48.884;9.126;2023-05-07T14:19:30;18.50;99.90
843;DHT22;407;48.884;9.126;2023-05-07T14:21:56;18.40;99.90
843;DHT22;407;48.884;9.126;2023-05-07T14:24:21;18.40;99.90
843;DHT22;407;48.884;9.126;2023-05-07T14:26:47;18.50;99.90
843;DHT22;407;48.884;9.126;2023-05-07T14:29:13;18.60;99.90
843;DHT22;407;48.884;9.126;2023-05-07T14:31:40;18.60;99.90
843;DHT22;407;48.884;9.126;2023-05-07T14:34:06;18.60;99.90
843;DHT22;407;48.884;9.126;2023-05-07T14:36:32;18.70;99.90
843;DHT22;407;48.884;9.126;2023-05-07T14:38:57;18.60;1.00
843;DHT22;407;48.884;9.126;2023-05-07T14:41:24;18.50;99.90
843;DHT22;407;48.884;9.126;2023-05-07T14:43:50;18.60;99.90
843;DHT22;407;48.884;9.126;2023-05-07T14:46:19;18.50;1.00
843;DHT22;407;48.884;9.126;2023-05-07T14:48:45;18.50;1.00
843;DHT22;407;48.884;9.126;2023-05-07T14:51:12;18.60;1.00
843;DHT22;407;48.884;9.126;2023-05-07T14:53:37;18.70;1.00
843;DHT22;407;48.884;9.126;2023-05-07T14:56:04;18.80;99.90
843;DHT22;407;48.884;9.126;2023-05-07T14:58:31;18.70;99.90
843;DHT22;407;48.884;9.126;2023-05-07T15:00:56;19.00;1.00
843;DHT22;407;48.884;9.126;2023-05-07T15:03:22;19.10;1.00
843;DHT22;407;48.884;9.126;2023-05-07T15:05:48;19.00;99.90
843;DHT22;407;48.884;9.126;2023-05-07T15:08:17;19.00;99.90
843;DHT22;407;48.884;9.126;2023-05-07T15:10:43;19.10;99.90
843;DHT22;407;48.884;9.126;2023-05-07T15:13:10;19.30;99.90
843;DHT22;407;48.884;9.126;2023-05-07T15:15:36;19.30;1.00
843;DHT22;407;48.884;9.126;2023-05-07T15:18:02;19.30;99.90
843;DHT22;407;48.884;9.126;2023-05-07T15:20:28;19.60;1.00
843;DHT22;407;48.884;9.126;2023-05-07T15:22:54;19.60;1.00
843;DHT22;407;48.884;9.126;2023-05-07T15:25:20;19.80;1.00
843;DHT22;407;48.884;9.126;2023-05-07T15:27:46;19.70;90.40
843;DHT22;407;48.884;9.126;2023-05-07T15:30:12;19.60;99.90
843;DHT22;407;48.884;9.126;2023-05-07T15:32:40;19.40;1.00
843;DHT22;407;48.884;9.126;2023-05-07T15:35:06;19.20;1.00
843;DHT22;407;48.884;9.126;2023-05-07T15:37:32;19.40;1.00
843;DHT22;407;48.884;9.126;2023-05-07T15:39:57;19.60;99.90
843;DHT22;407;48.884;9.126;2023-05-07T15:42:23;19.60;99.90
843;DHT22;407;48.884;9.126;2023-05-07T15:44:49;19.60;99.90
843;DHT22;407;48.884;9.126;2023-05-07T15:47:15;19.60;99.90
843;DHT22;407;48.884;9.126;2023-05-07T15:49:43;19.60;1.00
843;DHT22;407;48.884;9.126;2023-05-07T15:52:09;19.60;1.00
843;DHT22;407;48.884;9.126;2023-05-07T15:54:36;19.40;99.90
843;DHT22;407;48.884;9.126;2023-05-07T15:57:03;19.40;1.00
843;DHT22;407;48.884;9.126;2023-05-07T15:59:29;19.30;1.00
843;DHT22;407;48.884;9.126;2023-05-07T16:01:55;19.20;1.00
843;DHT22;407;48.884;9.126;2023-05-07T16:04:20;19.20;99.90
843;DHT22;407;48.884;9.126;2023-05-07T16:06:46;19.20;99.90
843;DHT22;407;48.884;9.126;2023-05-07T16:09:13;19.20;1.00
843;DHT22;407;48.884;9.126;2023-05-07T16:11:38;19.20;62.60
843;DHT22;407;48.884;9.126;2023-05-07T16:14:04;19.20;99.90
843;DHT22;407;48.884;9.126;2023-05-07T16:16:33;19.20;1.00
843;DHT22;407;48.884;9.126;2023-05-07T16:18:59;19.10;12.90
843;DHT22;407;48.884;9.126;2023-05-07T16:21:25;19.00;1.00
843;DHT22;407;48.884;9.126;2023-05-07T16:23:51;18.90;1.00
843;DHT22;407;48.884;9.126;2023-05-07T16:26:17;18.90;1.00
843;DHT22;407;48.884;9.126;2023-05-07T16:28:43;18.90;1.00
843;DHT22;407;48.884;9.126;2023-05-07T16:31:09;18.90;99.90
843;DHT22;407;48.884;9.126;2023-05-07T16:33:35;18.80;1.00
843;DHT22;407;48.884;9.126;2023-05-07T16:36:00;18.70;79.00
843;DHT22;407;48.884;9.126;2023-05-07T16:38:27;18.90;1.00
843;DHT22;407;48.884;9.126;2023-05-07T16:41:00;18.90;9.70
843;DHT22;407;48.884;9.126;2023-05-07T16:43:26;18.90;1.00
843;DHT22;407;48.884;9.126;2023-05-07T16:45:51;18.90;1.00
843;DHT22;407;48.884;9.126;2023-05-07T16:48:17;19.00;99.90